createdAt,value
2018-06-02T00:00:06.479Z,0.00
2018-06-02T00:01:59.322Z,0.00
2018-06-02T00:02:59.264Z,0.00
2018-06-02T00:04:52.135Z,0.00
2018-06-02T00:05:52.010Z,0.00
2018-06-02T00:07:45.446Z,0.00
2018-06-02T00:08:45.367Z,0.00
2018-06-02T00:10:38.218Z,0.00
2018-06-02T00:11:38.129Z,0.00
2018-06-02T00:13:30.958Z,0.00
2018-06-02T00:14:30.861Z,0.00
2018-06-02T00:16:23.711Z,0.00
2018-06-02T00:17:23.597Z,0.00
2018-06-02T00:19:16.479Z,0.00
2018-06-02T00:20:16.350Z,0.00
2018-06-02T00:22:09.218Z,0.00
2018-06-02T00:23:09.097Z,0.00
2018-06-02T00:25:01.959Z,0.00
2018-06-02T00:26:01.847Z,0.00
2018-06-02T00:27:54.706Z,0.00
2018-06-02T00:28:54.605Z,0.00
2018-06-02T00:30:47.460Z,0.00
2018-06-02T00:31:47.350Z,0.00
2018-06-02T00:33:40.232Z,0.00
2018-06-02T00:34:40.114Z,0.00
2018-06-02T00:36:33.565Z,0.00
2018-06-02T00:37:33.494Z,0.00
2018-06-02T00:39:26.465Z,0.00
2018-06-02T00:40:26.209Z,0.00
2018-06-02T00:42:19.153Z,0.00
2018-06-02T00:43:18.980Z,0.00
2018-06-02T00:45:11.825Z,0.00
2018-06-02T00:46:11.701Z,0.00
2018-06-02T00:48:04.577Z,0.00
2018-06-02T00:49:04.454Z,0.00
2018-06-02T00:50:57.319Z,0.00
2018-06-02T00:51:57.219Z,0.00
2018-06-02T00:53:50.064Z,0.00
2018-06-02T00:54:49.955Z,0.00
2018-06-02T00:56:43.822Z,0.00
2018-06-02T00:57:43.227Z,0.00
2018-06-02T00:59:36.068Z,0.00
2018-06-02T01:00:35.981Z,0.00
2018-06-02T01:02:28.803Z,0.00
2018-06-02T01:03:28.711Z,0.00
2018-06-02T01:05:21.590Z,0.00
2018-06-02T01:06:21.460Z,0.00
2018-06-02T01:08:14.324Z,0.00
2018-06-02T01:09:14.220Z,0.00
2018-06-02T01:11:07.074Z,0.00
2018-06-02T01:12:06.982Z,0.00
2018-06-02T01:13:59.834Z,0.00
2018-06-02T01:14:59.708Z,0.00
2018-06-02T01:16:53.081Z,0.00
2018-06-02T01:17:52.469Z,0.00
2018-06-02T01:19:45.306Z,0.00
2018-06-02T01:20:45.243Z,0.00
2018-06-02T01:22:38.581Z,0.00
2018-06-02T01:23:38.478Z,0.00
2018-06-02T01:25:31.743Z,0.00
2018-06-02T01:26:31.643Z,0.00
2018-06-02T01:28:24.480Z,0.00
2018-06-02T01:29:24.385Z,0.00
2018-06-02T01:31:18.261Z,0.00
2018-06-02T01:32:18.163Z,0.00
2018-06-02T01:34:11.003Z,0.00
2018-06-02T01:35:10.919Z,0.00
2018-06-02T01:37:03.764Z,0.00
2018-06-02T01:38:03.652Z,0.00
2018-06-02T01:39:56.671Z,0.00
2018-06-02T01:40:56.522Z,0.00
2018-06-02T01:42:49.478Z,0.00
2018-06-02T01:43:49.253Z,0.00
2018-06-02T01:45:42.215Z,0.00
2018-06-02T01:46:42.116Z,0.00
2018-06-02T01:48:34.962Z,0.00
2018-06-02T01:49:34.858Z,0.00
2018-06-02T01:51:28.471Z,0.00
2018-06-02T01:52:27.609Z,0.00
2018-06-02T01:54:20.483Z,0.00
2018-06-02T01:55:20.455Z,0.00
2018-06-02T01:57:13.236Z,0.00
2018-06-02T01:58:13.105Z,0.00
2018-06-02T02:00:05.965Z,0.00
2018-06-02T02:01:05.855Z,0.00
2018-06-02T02:02:58.736Z,0.00
2018-06-02T02:03:58.607Z,0.00
2018-06-02T02:05:51.559Z,0.00
2018-06-02T02:06:51.454Z,0.00
2018-06-02T02:08:44.330Z,0.00
2018-06-02T02:09:44.201Z,0.00
2018-06-02T02:11:37.058Z,0.00
2018-06-02T02:12:36.973Z,0.00
2018-06-02T02:14:29.830Z,0.00
2018-06-02T02:15:29.697Z,0.00
2018-06-02T02:17:22.560Z,0.00
2018-06-02T02:18:22.479Z,0.00
2018-06-02T02:20:15.310Z,0.00
2018-06-02T02:21:15.244Z,0.00
2018-06-02T02:23:12.091Z,0.00
2018-06-02T02:24:11.152Z,0.00
2018-06-02T02:26:05.786Z,0.00
2018-06-02T02:27:05.038Z,0.00
2018-06-02T02:28:57.850Z,0.00
2018-06-02T02:29:57.761Z,0.00
2018-06-02T02:31:50.594Z,0.00
2018-06-02T02:32:50.499Z,0.00
2018-06-02T02:34:43.882Z,0.00
2018-06-02T02:35:43.257Z,0.00
2018-06-02T02:37:36.219Z,0.00
2018-06-02T02:38:36.034Z,0.00
2018-06-02T02:40:28.863Z,0.00
2018-06-02T02:41:28.773Z,0.00
2018-06-02T02:43:21.638Z,0.00
2018-06-02T02:44:21.520Z,0.00
2018-06-02T02:46:14.495Z,0.00
2018-06-02T02:47:14.271Z,0.00
2018-06-02T02:49:07.655Z,0.00
2018-06-02T02:50:07.656Z,0.00
2018-06-02T02:52:00.397Z,0.00
2018-06-02T02:53:00.272Z,0.00
2018-06-02T02:54:53.163Z,0.00
2018-06-02T02:55:53.025Z,0.00
2018-06-02T02:57:46.367Z,0.00
2018-06-02T02:58:46.270Z,0.00
2018-06-02T03:00:39.244Z,0.00
2018-06-02T03:01:39.141Z,0.00
2018-06-02T03:03:31.974Z,0.00
2018-06-02T03:04:31.885Z,0.00
2018-06-02T03:06:24.732Z,0.00
2018-06-02T03:07:24.633Z,0.00
2018-06-02T03:09:17.491Z,0.00
2018-06-02T03:10:17.381Z,0.00
2018-06-02T03:12:10.233Z,0.00
2018-06-02T03:13:10.127Z,0.00
2018-06-02T03:15:02.961Z,0.00
2018-06-02T03:16:02.874Z,0.00
2018-06-02T03:17:55.734Z,0.00
2018-06-02T03:18:55.623Z,0.00
2018-06-02T03:20:48.489Z,0.00
2018-06-02T03:21:48.380Z,0.00
2018-06-02T03:23:41.234Z,0.00
2018-06-02T03:24:41.122Z,0.00
2018-06-02T03:26:33.992Z,0.00
2018-06-02T03:27:33.871Z,0.00
2018-06-02T03:29:26.837Z,0.00
2018-06-02T03:30:26.725Z,0.00
2018-06-02T03:32:19.582Z,0.00
2018-06-02T03:33:19.477Z,0.00
2018-06-02T03:35:12.457Z,0.00
2018-06-02T03:36:12.388Z,0.00
2018-06-02T03:38:05.217Z,0.00
2018-06-02T03:39:05.079Z,0.00
2018-06-02T03:40:57.948Z,5.63
2018-06-02T03:41:57.869Z,5.63
2018-06-02T03:43:50.687Z,5.63
2018-06-02T03:44:50.589Z,5.63
2018-06-02T03:46:43.936Z,5.63
2018-06-02T03:47:43.318Z,5.63
2018-06-02T03:49:36.247Z,5.63
2018-06-02T03:50:36.074Z,0.00
2018-06-02T03:52:28.936Z,0.00
2018-06-02T03:53:28.836Z,0.00
2018-06-02T03:55:21.679Z,0.00
2018-06-02T03:56:21.575Z,0.00
2018-06-02T03:58:14.436Z,0.00
2018-06-02T03:59:14.334Z,0.00
2018-06-02T04:01:07.194Z,0.00
2018-06-02T04:02:07.081Z,0.00
2018-06-02T04:03:59.927Z,0.00
2018-06-02T04:04:59.838Z,0.00
2018-06-02T04:06:53.198Z,0.00
2018-06-02T04:07:53.080Z,0.00
2018-06-02T04:09:45.940Z,0.00
2018-06-02T04:10:45.835Z,0.00
2018-06-02T04:12:38.716Z,0.00
2018-06-02T04:13:38.591Z,0.00
2018-06-02T04:15:31.416Z,0.00
2018-06-02T04:16:31.330Z,0.00
2018-06-02T04:18:24.181Z,0.00
2018-06-02T04:19:24.072Z,0.00
2018-06-02T04:21:16.933Z,0.00
2018-06-02T04:22:16.877Z,0.00
2018-06-02T04:24:09.779Z,0.00
2018-06-02T04:25:09.769Z,0.00
2018-06-02T04:27:02.559Z,0.00
2018-06-02T04:28:02.460Z,0.00
2018-06-02T04:29:55.290Z,0.00
2018-06-02T04:30:55.208Z,0.00
2018-06-02T04:32:48.041Z,5.63
2018-06-02T04:33:48.074Z,5.63
2018-06-02T04:35:41.021Z,5.63
2018-06-02T04:36:40.778Z,5.63
2018-06-02T04:38:33.641Z,5.63
2018-06-02T04:39:33.535Z,5.63
2018-06-02T04:41:26.437Z,5.63
2018-06-02T04:42:26.308Z,5.63
2018-06-02T04:44:19.135Z,5.63
2018-06-02T04:45:19.042Z,5.63
2018-06-02T04:47:12.421Z,5.63
2018-06-02T04:48:11.782Z,5.63
2018-06-02T04:50:04.642Z,5.63
2018-06-02T04:51:04.531Z,5.63
2018-06-02T04:52:57.372Z,0.00
2018-06-02T04:53:57.284Z,0.00
2018-06-02T04:55:50.146Z,0.00
2018-06-02T04:56:50.099Z,0.00
2018-06-02T04:58:42.881Z,0.00
2018-06-02T04:59:42.790Z,0.00
2018-06-02T05:01:35.627Z,0.00
2018-06-02T05:02:35.531Z,0.00
2018-06-02T05:04:28.445Z,0.00
2018-06-02T05:05:28.278Z,0.00
2018-06-02T05:07:21.121Z,0.00
2018-06-02T05:08:21.033Z,0.00
2018-06-02T05:10:14.415Z,0.00
2018-06-02T05:11:13.776Z,0.00
2018-06-02T05:13:06.672Z,0.00
2018-06-02T05:14:06.553Z,0.00
2018-06-02T05:15:59.611Z,0.00
2018-06-02T05:16:59.410Z,5.63
2018-06-02T05:18:52.333Z,5.63
2018-06-02T05:19:52.232Z,5.63
2018-06-02T05:21:45.223Z,5.63
2018-06-02T05:22:45.115Z,5.63
2018-06-02T05:24:37.931Z,5.63
2018-06-02T05:25:37.834Z,5.63
2018-06-02T05:27:30.822Z,5.63
2018-06-02T05:28:30.699Z,5.63
2018-06-02T05:30:23.536Z,5.63
2018-06-02T05:31:23.461Z,5.63
2018-06-02T05:33:16.278Z,5.63
2018-06-02T05:34:16.181Z,5.63
2018-06-02T05:36:09.030Z,5.63
2018-06-02T05:37:08.931Z,5.63
2018-06-02T05:39:01.775Z,5.63
2018-06-02T05:40:01.682Z,5.63
2018-06-02T05:41:54.546Z,11.25
2018-06-02T05:42:54.432Z,11.25
2018-06-02T05:44:47.303Z,11.25
2018-06-02T05:45:47.191Z,16.88
2018-06-02T05:47:40.162Z,16.88
2018-06-02T05:48:40.036Z,16.88
2018-06-02T05:50:33.292Z,22.50
2018-06-02T05:51:33.205Z,22.50
2018-06-02T05:53:26.154Z,22.50
2018-06-02T05:54:26.051Z,22.50
2018-06-02T05:56:18.894Z,28.13
2018-06-02T05:57:18.815Z,22.50
2018-06-02T05:59:12.405Z,22.50
2018-06-02T06:00:11.621Z,22.50
2018-06-02T06:02:08.212Z,22.50
2018-06-02T06:03:07.498Z,16.88
2018-06-02T06:05:00.865Z,16.88
2018-06-02T06:06:00.732Z,16.88
2018-06-02T06:07:53.699Z,16.88
2018-06-02T06:08:53.589Z,16.88
2018-06-02T06:10:46.573Z,16.88
2018-06-02T06:11:46.446Z,16.88
2018-06-02T06:13:39.838Z,16.88
2018-06-02T06:14:39.772Z,16.88
2018-06-02T06:16:32.545Z,16.88
2018-06-02T06:17:32.444Z,16.88
2018-06-02T06:19:25.831Z,22.50
2018-06-02T06:20:25.710Z,22.50
2018-06-02T06:22:19.113Z,28.13
2018-06-02T06:23:18.992Z,28.13
2018-06-02T06:25:12.353Z,33.75
2018-06-02T06:26:12.232Z,33.75
2018-06-02T06:28:05.620Z,33.75
2018-06-02T06:29:05.513Z,28.13
2018-06-02T06:30:58.871Z,28.13
2018-06-02T06:31:58.260Z,28.13
2018-06-02T06:33:51.189Z,28.13
2018-06-02T06:34:51.111Z,28.13
2018-06-02T06:36:44.075Z,39.38
2018-06-02T06:37:43.948Z,39.38
2018-06-02T06:39:36.827Z,45.00
2018-06-02T06:40:36.687Z,45.00
2018-06-02T06:42:30.055Z,45.00
2018-06-02T06:43:29.440Z,45.00
2018-06-02T06:45:22.306Z,33.75
2018-06-02T06:46:22.188Z,33.75
2018-06-02T06:48:15.045Z,28.13
2018-06-02T06:49:14.981Z,28.13
2018-06-02T06:51:07.928Z,22.50
2018-06-02T06:52:07.871Z,22.50
2018-06-02T06:54:01.293Z,22.50
2018-06-02T06:55:01.226Z,22.50
2018-06-02T06:56:54.170Z,22.50
2018-06-02T06:57:54.054Z,28.13
2018-06-02T06:59:47.072Z,28.13
2018-06-02T07:00:46.999Z,28.13
2018-06-02T07:02:39.936Z,33.75
2018-06-02T07:03:39.845Z,39.38
2018-06-02T07:05:32.772Z,45.00
2018-06-02T07:06:32.689Z,45.00
2018-06-02T07:08:26.061Z,39.38
2018-06-02T07:09:25.426Z,39.38
2018-06-02T07:11:18.396Z,45.00
2018-06-02T07:12:18.309Z,45.00
2018-06-02T07:14:11.346Z,50.63
2018-06-02T07:15:11.551Z,50.63
2018-06-02T07:17:04.175Z,50.63
2018-06-02T07:18:04.260Z,56.25
2018-06-02T07:19:57.865Z,56.25
2018-06-02T07:20:57.390Z,56.25
2018-06-02T07:22:50.748Z,56.25
2018-06-02T07:23:50.202Z,56.25
2018-06-02T07:25:43.536Z,61.88
2018-06-02T07:26:43.461Z,61.88
2018-06-02T07:28:36.422Z,56.25
2018-06-02T07:29:36.313Z,56.25
2018-06-02T07:31:29.682Z,56.25
2018-06-02T07:32:29.155Z,56.25
2018-06-02T07:34:22.115Z,56.25
2018-06-02T07:35:22.024Z,50.63
2018-06-02T07:37:14.956Z,56.25
2018-06-02T07:38:14.910Z,56.25
2018-06-02T07:40:07.830Z,45.00
2018-06-02T07:41:07.710Z,45.00
2018-06-02T07:43:01.062Z,45.00
2018-06-02T07:44:00.565Z,45.00
2018-06-02T07:45:53.537Z,45.00
2018-06-02T07:46:53.437Z,50.63
2018-06-02T07:48:46.399Z,45.00
2018-06-02T07:49:46.296Z,45.00
2018-06-02T07:51:39.268Z,39.38
2018-06-02T07:52:39.160Z,39.38
2018-06-02T07:54:32.095Z,39.38
2018-06-02T07:55:31.970Z,39.38
2018-06-02T07:57:29.907Z,39.38
2018-06-02T08:00:22.643Z,50.63
2018-06-02T08:01:21.782Z,56.25
2018-06-02T08:03:14.748Z,67.50
2018-06-02T08:04:14.656Z,67.50
2018-06-02T08:06:07.582Z,67.50
2018-06-02T08:07:07.477Z,67.50
2018-06-02T08:09:00.422Z,73.13
2018-06-02T08:10:00.380Z,78.75
2018-06-02T08:11:53.728Z,78.75
2018-06-02T08:12:53.173Z,73.13
2018-06-02T08:14:46.172Z,67.50
2018-06-02T08:15:46.081Z,67.50
2018-06-02T08:17:39.000Z,67.50
2018-06-02T08:18:38.885Z,67.50
2018-06-02T08:20:32.138Z,67.50
2018-06-02T08:21:32.074Z,67.50
2018-06-02T08:23:25.505Z,67.50
2018-06-02T08:24:25.414Z,61.88
2018-06-02T08:26:18.370Z,61.88
2018-06-02T08:27:18.296Z,61.88
2018-06-02T08:29:11.235Z,61.88
2018-06-02T08:30:11.109Z,61.88
2018-06-02T08:32:04.488Z,67.50
2018-06-02T08:33:04.370Z,67.50
2018-06-02T08:34:57.359Z,67.50
2018-06-02T08:35:57.270Z,61.88
2018-06-02T08:37:50.252Z,61.88
2018-06-02T08:38:50.105Z,61.88
2018-06-02T08:40:43.942Z,61.88
2018-06-02T08:41:43.862Z,61.88
2018-06-02T08:43:37.241Z,61.88
2018-06-02T08:44:36.699Z,61.88
2018-06-02T08:46:29.792Z,78.75
2018-06-02T08:47:29.585Z,84.38
2018-06-02T08:49:22.598Z,95.63
2018-06-02T08:50:22.478Z,106.88
2018-06-02T08:52:15.249Z,101.25
2018-06-02T08:53:15.202Z,95.63
2018-06-02T08:55:08.546Z,78.75
2018-06-02T08:56:08.018Z,73.13
2018-06-02T08:58:00.862Z,78.75
2018-06-02T08:59:00.769Z,84.38
2018-06-02T09:00:53.631Z,84.38
2018-06-02T09:01:53.507Z,84.38
2018-06-02T09:03:47.266Z,78.75
2018-06-02T09:04:46.276Z,78.75
2018-06-02T09:06:39.625Z,73.13
2018-06-02T09:07:39.016Z,67.50
2018-06-02T09:09:32.867Z,61.88
2018-06-02T09:10:32.178Z,61.88
2018-06-02T09:12:26.458Z,61.88
2018-06-02T09:13:26.376Z,56.25
2018-06-02T09:15:19.719Z,50.63
2018-06-02T09:16:19.609Z,56.25
2018-06-02T09:18:12.469Z,61.88
2018-06-02T09:19:12.372Z,61.88
2018-06-02T09:21:05.224Z,90.00
2018-06-02T09:22:05.117Z,112.50
2018-06-02T09:23:58.471Z,135.00
2018-06-02T09:24:58.074Z,151.88
2018-06-02T09:26:50.915Z,163.13
2018-06-02T09:27:50.859Z,163.13
2018-06-02T09:29:44.107Z,157.50
2018-06-02T09:30:44.189Z,146.25
2018-06-02T09:32:36.412Z,135.00
2018-06-02T09:33:36.323Z,129.38
2018-06-02T09:35:29.189Z,112.50
2018-06-02T09:36:29.063Z,101.25
2018-06-02T09:38:21.908Z,95.63
2018-06-02T09:39:21.813Z,78.75
2018-06-02T09:41:15.065Z,61.88
2018-06-02T09:42:14.569Z,56.25
2018-06-02T09:44:07.434Z,50.63
2018-06-02T09:45:07.331Z,45.00
2018-06-02T09:47:00.227Z,45.00
2018-06-02T09:48:00.073Z,45.00
2018-06-02T09:49:52.939Z,50.63
2018-06-02T09:50:52.816Z,56.25
2018-06-02T09:52:45.667Z,67.50
2018-06-02T09:53:45.553Z,73.13
2018-06-02T09:55:38.472Z,90.00
2018-06-02T09:56:38.307Z,90.00
2018-06-02T09:58:31.175Z,90.00
2018-06-02T09:59:31.089Z,90.00
2018-06-02T10:01:24.373Z,84.38
2018-06-02T10:02:23.822Z,84.38
2018-06-02T10:04:16.758Z,84.38
2018-06-02T10:05:16.675Z,84.38
2018-06-02T10:07:09.515Z,84.38
2018-06-02T10:08:09.410Z,78.75
2018-06-02T10:10:02.270Z,73.13
2018-06-02T10:11:02.156Z,73.13
2018-06-02T10:12:55.031Z,73.13
2018-06-02T10:13:54.910Z,73.13
2018-06-02T10:15:47.754Z,73.13
2018-06-02T10:16:47.669Z,73.13
2018-06-02T10:18:40.630Z,73.13
2018-06-02T10:19:40.514Z,73.13
2018-06-02T10:21:33.405Z,67.50
2018-06-02T10:22:33.364Z,67.50
2018-06-02T10:24:26.121Z,61.88
2018-06-02T10:25:26.004Z,61.88
2018-06-02T10:27:18.864Z,56.25
2018-06-02T10:28:18.776Z,56.25
2018-06-02T10:30:11.600Z,56.25
2018-06-02T10:31:11.505Z,56.25
2018-06-02T10:33:04.367Z,61.88
2018-06-02T10:34:04.298Z,61.88
2018-06-02T10:35:57.093Z,61.88
2018-06-02T10:36:57.001Z,67.50
2018-06-02T10:38:50.389Z,73.13
2018-06-02T10:39:50.263Z,73.13
2018-06-02T10:41:43.131Z,73.13
2018-06-02T10:42:43.061Z,78.75
2018-06-02T10:44:35.911Z,84.38
2018-06-02T10:45:36.075Z,84.38
2018-06-02T10:47:30.132Z,95.63
2018-06-02T10:48:28.719Z,95.63
2018-06-02T10:50:21.510Z,106.88
2018-06-02T10:51:21.492Z,118.13
2018-06-02T10:53:14.234Z,135.00
2018-06-02T10:54:14.115Z,140.63
2018-06-02T10:56:07.030Z,151.88
2018-06-02T10:57:06.897Z,163.13
2018-06-02T10:58:59.757Z,174.38
2018-06-02T10:59:59.635Z,180.00
2018-06-02T11:01:53.508Z,225.00
2018-06-02T11:02:53.397Z,236.25
2018-06-02T11:04:46.267Z,236.25
2018-06-02T11:05:46.147Z,236.25
2018-06-02T11:07:38.995Z,230.63
2018-06-02T11:08:38.907Z,230.63
2018-06-02T11:10:33.501Z,225.00
2018-06-02T11:11:32.698Z,225.00
2018-06-02T11:13:25.652Z,219.38
2018-06-02T11:14:25.512Z,191.25
2018-06-02T11:16:18.322Z,180.00
2018-06-02T11:17:18.221Z,180.00
2018-06-02T11:19:11.009Z,208.13
2018-06-02T11:20:10.909Z,213.75
2018-06-02T11:22:03.762Z,213.75
2018-06-02T11:23:03.681Z,241.88
2018-06-02T11:24:56.601Z,241.88
2018-06-02T11:25:56.518Z,264.38
2018-06-02T11:27:49.390Z,230.63
2018-06-02T11:28:49.277Z,196.88
2018-06-02T11:30:42.105Z,225.00
2018-06-02T11:31:42.013Z,219.38
2018-06-02T11:33:35.390Z,213.75
2018-06-02T11:34:34.785Z,219.38
2018-06-02T11:36:27.604Z,213.75
2018-06-02T11:37:27.512Z,208.13
2018-06-02T11:39:20.381Z,180.00
2018-06-02T11:40:20.291Z,157.50
2018-06-02T11:42:14.154Z,135.00
2018-06-02T11:43:14.068Z,129.38
2018-06-02T11:45:06.890Z,118.13
2018-06-02T11:46:06.789Z,118.13
2018-06-02T11:47:59.688Z,123.75
2018-06-02T11:48:59.552Z,129.38
2018-06-02T11:50:52.397Z,123.75
2018-06-02T11:51:52.289Z,129.38
2018-06-02T11:53:45.233Z,140.63
2018-06-02T11:54:45.063Z,135.00
2018-06-02T11:56:39.424Z,135.00
2018-06-02T11:57:39.333Z,135.00
2018-06-02T11:59:32.332Z,129.38
2018-06-02T12:00:32.193Z,123.75
2018-06-02T12:02:25.015Z,123.75
2018-06-02T12:03:24.942Z,123.75
2018-06-02T12:05:17.790Z,118.13
2018-06-02T12:06:17.755Z,118.13
2018-06-02T12:08:10.741Z,123.75
2018-06-02T12:09:10.431Z,135.00
2018-06-02T12:11:03.308Z,146.25
2018-06-02T12:12:03.180Z,146.25
2018-06-02T12:13:56.113Z,168.75
2018-06-02T12:14:56.055Z,174.38
2018-06-02T12:16:48.899Z,180.00
2018-06-02T12:17:48.766Z,168.75
2018-06-02T12:19:41.637Z,163.13
2018-06-02T12:20:41.583Z,146.25
2018-06-02T12:22:34.400Z,140.63
2018-06-02T12:23:34.283Z,140.63
2018-06-02T12:25:28.128Z,135.00
2018-06-02T12:26:28.061Z,135.00
2018-06-02T12:28:20.945Z,129.38
2018-06-02T12:29:20.798Z,140.63
2018-06-02T12:31:15.224Z,146.25
2018-06-02T12:32:13.579Z,157.50
2018-06-02T12:34:06.384Z,174.38
2018-06-02T12:35:06.288Z,174.38
2018-06-02T12:36:59.678Z,180.00
2018-06-02T12:37:59.144Z,180.00
2018-06-02T12:39:51.980Z,202.50
2018-06-02T12:40:51.891Z,202.50
2018-06-02T12:42:45.169Z,196.88
2018-06-02T12:43:45.051Z,196.88
2018-06-02T12:45:37.913Z,208.13
2018-06-02T12:46:37.802Z,196.88
2018-06-02T12:48:31.579Z,174.38
2018-06-02T12:49:30.573Z,168.75
2018-06-02T12:51:23.929Z,157.50
2018-06-02T12:52:23.815Z,146.25
2018-06-02T12:54:16.678Z,129.38
2018-06-02T12:55:16.565Z,129.38
2018-06-02T12:57:09.399Z,135.00
2018-06-02T12:58:09.352Z,146.25
2018-06-02T13:00:05.122Z,151.88
2018-06-02T13:01:04.575Z,157.50
2018-06-02T13:02:58.843Z,168.75
2018-06-02T13:03:58.741Z,174.38
2018-06-02T13:05:51.561Z,180.00
2018-06-02T13:06:51.501Z,174.38
2018-06-02T13:08:44.320Z,157.50
2018-06-02T13:09:44.210Z,151.88
2018-06-02T13:11:37.669Z,129.38
2018-06-02T13:12:37.602Z,118.13
2018-06-02T13:14:30.468Z,129.38
2018-06-02T13:15:30.368Z,146.25
2018-06-02T13:17:23.177Z,180.00
2018-06-02T13:18:23.094Z,196.88
2018-06-02T13:20:15.955Z,180.00
2018-06-02T13:21:15.846Z,174.38
2018-06-02T13:23:09.272Z,174.38
2018-06-02T13:24:09.179Z,163.13
2018-06-02T13:26:02.137Z,146.25
2018-06-02T13:27:02.032Z,140.63
2018-06-02T13:28:54.868Z,135.00
2018-06-02T13:29:54.788Z,140.63
2018-06-02T13:31:47.691Z,151.88
2018-06-02T13:32:47.531Z,157.50
2018-06-02T13:34:40.494Z,163.13
2018-06-02T13:35:40.625Z,157.50
2018-06-02T13:37:33.236Z,146.25
2018-06-02T13:38:33.130Z,146.25
2018-06-02T13:40:26.625Z,140.63
2018-06-02T13:41:26.404Z,129.38
2018-06-02T13:43:19.279Z,118.13
2018-06-02T13:44:19.145Z,106.88
2018-06-02T13:46:12.017Z,95.63
2018-06-02T13:47:11.890Z,90.00
2018-06-02T13:49:04.757Z,95.63
2018-06-02T13:50:04.656Z,95.63
2018-06-02T13:51:57.513Z,101.25
2018-06-02T13:52:57.410Z,106.88
2018-06-02T13:54:50.227Z,106.88
2018-06-02T13:55:50.161Z,112.50
2018-06-02T13:57:43.615Z,118.13
2018-06-02T13:58:43.521Z,129.38
2018-06-02T14:00:36.348Z,135.00
2018-06-02T14:01:36.309Z,146.25
2018-06-02T14:03:29.145Z,151.88
2018-06-02T14:04:29.002Z,157.50
2018-06-02T14:06:21.848Z,157.50
2018-06-02T14:07:21.762Z,151.88
2018-06-02T14:09:14.681Z,157.50
2018-06-02T14:10:14.519Z,151.88
2018-06-02T14:12:07.355Z,129.38
2018-06-02T14:13:07.260Z,118.13
2018-06-02T14:15:00.171Z,101.25
2018-06-02T14:16:00.002Z,84.38
2018-06-02T14:17:52.860Z,73.13
2018-06-02T14:18:53.176Z,73.13
2018-06-02T14:20:45.639Z,61.88
2018-06-02T14:21:45.544Z,56.25
2018-06-02T14:23:38.944Z,50.63
2018-06-02T14:24:38.811Z,50.63
2018-06-02T14:26:31.734Z,67.50
2018-06-02T14:27:31.618Z,84.38
2018-06-02T14:29:24.631Z,106.88
2018-06-02T14:30:24.375Z,112.50
2018-06-02T14:32:17.213Z,146.25
2018-06-02T14:33:17.113Z,168.75
2018-06-02T14:35:09.972Z,163.13
2018-06-02T14:36:09.878Z,157.50
2018-06-02T14:38:03.219Z,140.63
2018-06-02T14:39:03.124Z,123.75
2018-06-02T14:40:56.512Z,106.88
2018-06-02T14:41:56.394Z,101.25
2018-06-02T14:43:49.227Z,90.00
2018-06-02T14:44:49.194Z,95.63
2018-06-02T14:46:43.547Z,106.88
2018-06-02T14:47:43.423Z,118.13
2018-06-02T14:49:36.806Z,135.00
2018-06-02T14:50:36.695Z,146.25
2018-06-02T14:52:37.002Z,174.38
2018-06-02T14:53:36.924Z,202.50
2018-06-02T14:55:29.760Z,180.00
2018-06-02T14:56:29.667Z,168.75
2018-06-02T14:58:27.539Z,174.38
2018-06-02T14:59:27.432Z,168.75
2018-06-02T15:01:20.292Z,163.13
2018-06-02T15:02:20.197Z,168.75
2018-06-02T15:04:13.023Z,185.63
2018-06-02T15:05:12.964Z,185.63
2018-06-02T15:07:05.808Z,185.63
2018-06-02T15:08:05.673Z,180.00
2018-06-02T15:09:59.022Z,174.38
2018-06-02T15:10:58.998Z,174.38
2018-06-02T15:12:52.372Z,180.00
2018-06-02T15:13:52.215Z,185.63
2018-06-02T15:15:45.060Z,168.75
2018-06-02T15:16:44.952Z,163.13
2018-06-02T15:18:37.813Z,146.25
2018-06-02T15:19:37.692Z,140.63
2018-06-02T15:21:31.081Z,146.25
2018-06-02T15:22:30.489Z,157.50
2018-06-02T15:24:23.303Z,146.25
2018-06-02T15:25:23.192Z,140.63
2018-06-02T15:27:16.567Z,146.25
2018-06-02T15:28:16.457Z,168.75
2018-06-02T15:30:09.837Z,163.13
2018-06-02T15:31:09.317Z,151.88
2018-06-02T15:33:02.147Z,129.38
2018-06-02T15:34:02.100Z,129.38
2018-06-02T15:35:55.949Z,123.75
2018-06-02T15:36:55.750Z,118.13
2018-06-02T15:38:48.568Z,112.50
2018-06-02T15:39:48.491Z,112.50
2018-06-02T15:41:41.366Z,101.25
2018-06-02T15:42:41.230Z,95.63
2018-06-02T15:44:34.068Z,90.00
2018-06-02T15:45:33.979Z,84.38
2018-06-02T15:47:27.445Z,90.00
2018-06-02T15:48:27.351Z,90.00
2018-06-02T15:50:20.203Z,106.88
2018-06-02T15:51:20.114Z,112.50
2018-06-02T15:53:12.968Z,180.00
2018-06-02T15:54:12.841Z,146.25
2018-06-02T15:56:05.676Z,129.38
2018-06-02T15:57:05.580Z,123.75
2018-06-02T15:58:58.972Z,146.25
2018-06-02T15:59:58.338Z,157.50
2018-06-02T16:01:51.178Z,196.88
2018-06-02T16:02:51.093Z,163.13
2018-06-02T16:04:43.963Z,135.00
2018-06-02T16:05:43.839Z,140.63
2018-06-02T16:07:36.693Z,185.63
2018-06-02T16:08:36.589Z,230.63
2018-06-02T16:10:29.438Z,298.13
2018-06-02T16:11:29.437Z,331.88
2018-06-02T16:13:22.281Z,365.63
2018-06-02T16:14:22.251Z,354.38
2018-06-02T16:16:15.574Z,292.50
2018-06-02T16:17:14.985Z,343.13
2018-06-02T16:19:08.316Z,354.38
2018-06-02T16:20:07.807Z,326.25
2018-06-02T16:22:00.697Z,427.50
2018-06-02T16:23:00.566Z,433.13
2018-06-02T16:24:53.504Z,421.88
2018-06-02T16:25:53.400Z,410.63
2018-06-02T16:27:46.425Z,320.63
2018-06-02T16:28:46.280Z,185.63
2018-06-02T16:30:39.095Z,129.38
2018-06-02T16:31:39.035Z,135.00
2018-06-02T16:33:32.377Z,146.25
2018-06-02T16:34:31.881Z,146.25
2018-06-02T16:36:24.704Z,135.00
2018-06-02T16:37:24.628Z,135.00
2018-06-02T16:39:18.486Z,174.38
2018-06-02T16:40:18.371Z,196.88
2018-06-02T16:42:11.211Z,208.13
2018-06-02T16:43:11.141Z,213.75
2018-06-02T16:45:03.992Z,241.88
2018-06-02T16:46:03.879Z,247.50
2018-06-02T16:47:56.710Z,253.13
2018-06-02T16:48:56.619Z,247.50
2018-06-02T16:50:49.530Z,202.50
2018-06-02T16:51:49.368Z,168.75
2018-06-02T16:53:42.351Z,157.50
2018-06-02T16:54:42.255Z,180.00
2018-06-02T16:56:36.117Z,208.13
2018-06-02T16:57:36.001Z,196.88
2018-06-02T16:59:29.354Z,180.00
2018-06-02T17:00:28.757Z,180.00
2018-06-02T17:02:21.607Z,163.13
2018-06-02T17:03:21.501Z,129.38
2018-06-02T17:05:14.359Z,84.38
2018-06-02T17:06:14.287Z,78.75
2018-06-02T17:08:07.113Z,61.88
2018-06-02T17:09:07.006Z,50.63
2018-06-02T17:10:59.958Z,45.00
2018-06-02T17:11:59.918Z,39.38
2018-06-02T17:13:53.219Z,39.38
2018-06-02T17:14:53.170Z,33.75
2018-06-02T17:16:46.055Z,33.75
2018-06-02T17:17:45.886Z,33.75
2018-06-02T17:19:38.790Z,33.75
2018-06-02T17:20:38.597Z,33.75
2018-06-02T17:22:31.570Z,33.75
2018-06-02T17:23:31.471Z,33.75
2018-06-02T17:25:24.336Z,33.75
2018-06-02T17:26:24.204Z,33.75
2018-06-02T17:28:17.144Z,33.75
2018-06-02T17:29:17.072Z,33.75
2018-06-02T17:31:09.986Z,33.75
2018-06-02T17:32:09.826Z,33.75
2018-06-02T17:34:02.662Z,39.38
2018-06-02T17:35:02.611Z,39.38
2018-06-02T17:36:56.876Z,39.38
2018-06-02T17:37:56.737Z,45.00
2018-06-02T17:39:49.580Z,50.63
2018-06-02T17:40:49.488Z,61.88
2018-06-02T17:42:42.357Z,45.00
2018-06-02T17:43:42.238Z,39.38
2018-06-02T17:45:35.418Z,39.38
2018-06-02T17:46:35.293Z,39.38
2018-06-02T17:48:28.163Z,39.38
2018-06-02T17:49:28.062Z,39.38
2018-06-02T17:51:20.986Z,45.00
2018-06-02T17:52:20.932Z,39.38
2018-06-02T17:54:14.066Z,28.13
2018-06-02T17:55:13.980Z,22.50
2018-06-02T17:57:06.800Z,22.50
2018-06-02T17:58:06.697Z,22.50
2018-06-02T17:59:59.577Z,16.88
2018-06-02T18:00:59.467Z,16.88
2018-06-02T18:02:52.296Z,16.88
2018-06-02T18:03:52.210Z,16.88
2018-06-02T18:05:45.110Z,16.88
2018-06-02T18:06:44.944Z,16.88
2018-06-02T18:08:37.853Z,16.88
2018-06-02T18:09:37.703Z,16.88
2018-06-02T18:11:33.653Z,16.88
2018-06-02T18:12:33.526Z,11.25
2018-06-02T18:14:26.619Z,11.25
2018-06-02T18:15:26.388Z,11.25
2018-06-02T18:17:19.277Z,11.25
2018-06-02T18:18:19.139Z,11.25
2018-06-02T18:20:12.534Z,11.25
2018-06-02T18:21:12.399Z,11.25
2018-06-02T18:23:05.262Z,11.25
2018-06-02T18:24:05.159Z,11.25
2018-06-02T18:25:58.008Z,16.88
2018-06-02T18:26:57.934Z,16.88
2018-06-02T18:28:50.809Z,16.88
2018-06-02T18:29:50.630Z,16.88
2018-06-02T18:31:43.476Z,22.50
2018-06-02T18:32:43.380Z,16.88
2018-06-02T18:34:38.007Z,16.88